createdAt,value
2017-07-15T00:00:47.714Z,92.30
2017-07-15T00:03:16.013Z,92.10
2017-07-15T00:05:44.268Z,92.40
2017-07-15T00:08:12.536Z,93.20
2017-07-15T00:10:40.827Z,92.50
2017-07-15T00:13:09.099Z,92.60
2017-07-15T00:15:37.364Z,92.60
2017-07-15T00:18:05.661Z,92.80
2017-07-15T00:20:33.961Z,92.30
2017-07-15T00:23:02.216Z,92.30
2017-07-15T00:25:30.473Z,92.60
2017-07-15T00:27:58.772Z,92.70
2017-07-15T00:30:27.043Z,92.50
2017-07-15T00:32:55.348Z,92.40
2017-07-15T00:35:23.609Z,92.90
2017-07-15T00:37:51.884Z,93.30
2017-07-15T00:40:20.182Z,92.80
2017-07-15T00:42:48.452Z,93.20
2017-07-15T00:45:16.752Z,93.00
2017-07-15T00:47:45.014Z,93.10
2017-07-15T00:50:13.276Z,93.10
2017-07-15T00:52:41.571Z,92.90
2017-07-15T00:55:09.875Z,92.80
2017-07-15T00:57:38.148Z,92.90
2017-07-15T01:00:06.423Z,93.40
2017-07-15T01:02:34.735Z,93.50
2017-07-15T01:05:03.001Z,94.00
2017-07-15T01:07:31.261Z,93.40
2017-07-15T01:09:59.574Z,94.30
2017-07-15T01:12:27.848Z,93.40
2017-07-15T01:14:56.111Z,93.50
2017-07-15T01:17:24.422Z,93.40
2017-07-15T01:19:52.704Z,93.50
2017-07-15T01:22:20.978Z,94.10
2017-07-15T01:24:49.296Z,93.90
2017-07-15T01:27:17.573Z,93.30
2017-07-15T01:29:45.844Z,92.80
2017-07-15T01:32:14.128Z,93.30
2017-07-15T01:34:42.383Z,93.20
2017-07-15T01:37:10.671Z,93.10
2017-07-15T01:39:38.942Z,93.30
2017-07-15T01:42:07.243Z,93.50
2017-07-15T01:44:35.520Z,92.90
2017-07-15T01:47:03.780Z,93.10
2017-07-15T01:49:32.076Z,93.10
2017-07-15T01:52:00.339Z,92.90
2017-07-15T01:54:28.603Z,93.10
2017-07-15T01:56:56.894Z,92.90
2017-07-15T01:59:25.161Z,93.20
2017-07-15T02:01:53.483Z,93.20
2017-07-15T02:04:21.746Z,93.00
2017-07-15T02:06:50.007Z,93.00
2017-07-15T02:09:18.305Z,94.20
2017-07-15T02:11:46.565Z,93.40
2017-07-15T02:14:14.824Z,93.80
2017-07-15T02:16:43.115Z,93.70
2017-07-15T02:19:11.378Z,93.30
2017-07-15T02:21:39.672Z,93.00
2017-07-15T02:24:07.972Z,93.00
2017-07-15T02:26:36.228Z,93.20
2017-07-15T02:29:04.491Z,93.70
2017-07-15T02:31:32.786Z,93.30
2017-07-15T02:34:01.067Z,92.70
2017-07-15T02:36:29.360Z,93.30
2017-07-15T02:38:57.615Z,93.30
2017-07-15T02:41:25.913Z,93.10
2017-07-15T02:43:54.210Z,93.60
2017-07-15T02:46:22.464Z,93.80
2017-07-15T02:48:50.716Z,93.30
2017-07-15T02:51:19.008Z,93.40
2017-07-15T02:53:47.272Z,93.60
2017-07-15T02:56:15.562Z,93.10
2017-07-15T02:58:43.823Z,92.70
2017-07-15T03:01:12.107Z,93.30
2017-07-15T03:03:40.367Z,93.20
2017-07-15T03:06:08.668Z,93.40
2017-07-15T03:08:36.933Z,93.60
2017-07-15T03:11:05.188Z,93.40
2017-07-15T03:13:33.484Z,93.10
2017-07-15T03:16:01.744Z,93.60
2017-07-15T03:18:30.076Z,93.70
2017-07-15T03:20:58.340Z,93.30
2017-07-15T03:23:26.624Z,93.90
2017-07-15T03:25:54.909Z,93.80
2017-07-15T03:28:23.168Z,93.20
2017-07-15T03:30:51.465Z,93.20
2017-07-15T03:33:19.730Z,93.00
2017-07-15T03:35:48.035Z,93.50
2017-07-15T03:38:17.228Z,93.40
2017-07-15T03:40:45.491Z,93.80
2017-07-15T03:43:13.793Z,93.30
2017-07-15T03:45:42.057Z,93.10
2017-07-15T03:48:10.318Z,93.50
2017-07-15T03:50:38.597Z,93.30
2017-07-15T03:53:06.848Z,93.80
2017-07-15T03:55:35.125Z,93.40
2017-07-15T03:58:03.383Z,93.50
2017-07-15T04:00:31.659Z,93.00
2017-07-15T04:02:59.918Z,92.70
2017-07-15T04:05:28.220Z,93.40
2017-07-15T04:07:56.484Z,93.50
2017-07-15T04:10:24.747Z,93.50
2017-07-15T04:12:53.047Z,93.60
2017-07-15T04:15:21.324Z,93.50
2017-07-15T04:17:49.608Z,93.70
2017-07-15T04:20:17.876Z,93.80
2017-07-15T04:22:46.174Z,93.80
2017-07-15T04:25:14.440Z,93.30
2017-07-15T04:27:41.967Z,93.30
2017-07-15T04:30:10.362Z,93.10
2017-07-15T04:32:38.624Z,93.60
2017-07-15T04:35:06.936Z,93.60
2017-07-15T04:37:35.215Z,93.90
2017-07-15T04:40:03.475Z,93.10
2017-07-15T04:42:31.776Z,93.40
2017-07-15T04:45:00.043Z,93.30
2017-07-15T04:47:28.304Z,93.70
2017-07-15T04:49:56.609Z,93.30
2017-07-15T04:52:24.867Z,93.10
2017-07-15T04:54:53.140Z,93.20
2017-07-15T04:57:21.432Z,92.80
2017-07-15T04:59:49.740Z,93.00
2017-07-15T05:02:18.025Z,93.70
2017-07-15T05:04:47.211Z,93.50
2017-07-15T05:07:15.499Z,92.80
2017-07-15T05:09:43.787Z,92.90
2017-07-15T05:12:12.043Z,93.10
2017-07-15T05:14:40.345Z,93.50
2017-07-15T05:17:08.608Z,93.50
2017-07-15T05:19:36.868Z,93.10
2017-07-15T05:22:05.152Z,93.40
2017-07-15T05:24:33.404Z,93.10
2017-07-15T05:27:01.704Z,93.30
2017-07-15T05:29:29.978Z,93.40
2017-07-15T05:31:58.243Z,93.10
2017-07-15T05:34:26.528Z,93.70
2017-07-15T05:36:54.800Z,93.30
2017-07-15T05:39:23.101Z,93.30
2017-07-15T05:41:51.360Z,93.30
2017-07-15T05:44:19.624Z,93.40
2017-07-15T05:46:47.920Z,93.30
2017-07-15T05:49:16.186Z,93.30
2017-07-15T05:51:45.404Z,93.50
2017-07-15T05:54:13.677Z,93.10
2017-07-15T05:56:41.990Z,93.20
2017-07-15T05:59:10.252Z,93.10
2017-07-15T06:01:38.533Z,92.80
2017-07-15T06:04:06.829Z,93.10
2017-07-15T06:06:35.106Z,93.00
2017-07-15T06:09:03.418Z,92.60
2017-07-15T06:11:31.705Z,93.10
2017-07-15T06:13:59.963Z,93.00
2017-07-15T06:16:28.265Z,92.10
2017-07-15T06:18:56.536Z,92.20
2017-07-15T06:21:24.841Z,92.70
2017-07-15T06:23:53.108Z,93.10
2017-07-15T06:26:21.368Z,93.10
2017-07-15T06:28:49.669Z,92.80
2017-07-15T06:31:18.928Z,92.80
2017-07-15T06:33:47.213Z,92.70
2017-07-15T06:36:16.428Z,92.50
2017-07-15T06:38:43.973Z,92.50
2017-07-15T06:41:12.245Z,93.00
2017-07-15T06:43:40.508Z,93.00
2017-07-15T06:46:08.797Z,92.80
2017-07-15T06:48:37.069Z,92.80
2017-07-15T06:51:04.587Z,93.00
2017-07-15T06:53:32.855Z,92.70
2017-07-15T06:56:01.147Z,92.70
2017-07-15T06:58:29.441Z,92.50
2017-07-15T07:00:57.696Z,92.70
2017-07-15T07:03:25.992Z,92.70
2017-07-15T07:05:53.493Z,92.70
2017-07-15T07:08:21.756Z,91.80
2017-07-15T07:10:50.053Z,91.90
2017-07-15T07:13:18.313Z,91.40
2017-07-15T07:15:46.604Z,91.00
2017-07-15T07:18:14.884Z,91.20
2017-07-15T07:20:43.201Z,91.40
2017-07-15T07:23:11.470Z,91.10
2017-07-15T07:25:39.735Z,91.20
2017-07-15T07:28:08.029Z,91.50
2017-07-15T07:30:36.286Z,91.40
2017-07-15T07:33:04.581Z,91.30
2017-07-15T07:35:32.842Z,90.20
2017-07-15T07:38:01.129Z,88.40
2017-07-15T07:40:29.415Z,89.70
2017-07-15T07:42:57.677Z,87.70
2017-07-15T07:45:25.968Z,86.60
2017-07-15T07:47:54.260Z,87.90
2017-07-15T07:50:22.521Z,88.40
2017-07-15T07:52:50.788Z,87.60
2017-07-15T07:55:19.075Z,87.80
2017-07-15T07:57:47.372Z,86.20
2017-07-15T08:00:15.650Z,84.00
2017-07-15T08:02:43.928Z,84.40
2017-07-15T08:05:12.211Z,86.10
2017-07-15T08:07:40.478Z,84.70
2017-07-15T08:10:08.773Z,83.20
2017-07-15T08:12:37.074Z,82.60
2017-07-15T08:15:05.362Z,83.00
2017-07-15T08:17:33.624Z,80.80
2017-07-15T08:20:01.913Z,80.00
2017-07-15T08:22:30.201Z,79.20
2017-07-15T08:24:57.706Z,79.10
2017-07-15T08:27:26.006Z,81.70
2017-07-15T08:29:54.275Z,81.20
2017-07-15T08:32:22.572Z,82.10
2017-07-15T08:34:50.877Z,80.20
2017-07-15T08:37:19.144Z,75.40
2017-07-15T08:39:47.408Z,72.20
2017-07-15T08:42:15.714Z,74.20
2017-07-15T08:44:43.988Z,75.60
2017-07-15T08:47:12.252Z,74.80
2017-07-15T08:49:40.549Z,73.00
2017-07-15T08:52:08.818Z,72.90
2017-07-15T08:54:37.117Z,70.40
2017-07-15T08:57:05.384Z,71.60
2017-07-15T08:59:33.647Z,73.60
2017-07-15T09:02:01.939Z,73.40
2017-07-15T09:04:30.213Z,75.30
2017-07-15T09:06:58.509Z,71.90
2017-07-15T09:09:26.023Z,71.90
2017-07-15T09:11:54.276Z,76.20
2017-07-15T09:14:22.570Z,72.90
2017-07-15T09:16:50.839Z,70.70
2017-07-15T09:19:18.387Z,70.60
2017-07-15T09:21:46.659Z,73.00
2017-07-15T09:24:14.945Z,66.80
2017-07-15T09:26:43.231Z,66.10
2017-07-15T09:29:11.498Z,66.50
2017-07-15T09:31:39.800Z,68.70
2017-07-15T09:34:08.070Z,70.60
2017-07-15T09:36:36.335Z,71.70
2017-07-15T09:39:04.642Z,70.80
2017-07-15T09:41:32.914Z,69.30
2017-07-15T09:44:01.181Z,67.70
2017-07-15T09:46:29.480Z,65.10
2017-07-15T09:48:57.746Z,67.40
2017-07-15T09:51:26.012Z,63.90
2017-07-15T09:53:54.310Z,64.80
2017-07-15T09:56:22.571Z,67.00
2017-07-15T09:58:50.868Z,63.40
2017-07-15T10:01:20.076Z,65.30
2017-07-15T10:03:48.384Z,66.10
2017-07-15T10:06:16.652Z,67.90
2017-07-15T10:08:44.932Z,65.60
2017-07-15T10:11:13.216Z,65.10
2017-07-15T10:13:41.480Z,63.40
2017-07-15T10:16:09.811Z,66.10
2017-07-15T10:18:38.074Z,68.70
2017-07-15T10:21:06.350Z,62.60
2017-07-15T10:23:34.639Z,61.30
2017-07-15T10:26:02.905Z,60.80
2017-07-15T10:28:31.190Z,63.80
2017-07-15T10:30:59.461Z,60.70
2017-07-15T10:33:27.753Z,64.00
2017-07-15T10:35:56.015Z,61.60
2017-07-15T10:38:24.274Z,58.40
2017-07-15T10:40:52.565Z,60.40
2017-07-15T10:43:20.832Z,59.60
2017-07-15T10:45:48.395Z,59.60
2017-07-15T10:48:16.665Z,61.30
2017-07-15T10:50:44.958Z,57.90
2017-07-15T10:53:13.244Z,59.70
2017-07-15T10:55:41.501Z,60.90
2017-07-15T10:58:09.800Z,61.30
2017-07-15T11:00:38.064Z,58.00
2017-07-15T11:03:06.497Z,59.20
2017-07-15T11:05:34.824Z,59.10
2017-07-15T11:08:03.075Z,56.90
2017-07-15T11:10:31.360Z,57.10
2017-07-15T11:12:59.648Z,58.10
2017-07-15T11:15:27.956Z,59.20
2017-07-15T11:17:56.216Z,57.40
2017-07-15T11:20:24.481Z,56.50
2017-07-15T11:22:52.771Z,55.40
2017-07-15T11:25:21.037Z,55.20
2017-07-15T11:27:49.349Z,55.30
2017-07-15T11:30:17.614Z,55.00
2017-07-15T11:32:45.888Z,57.70
2017-07-15T11:35:14.173Z,54.70
2017-07-15T11:37:42.451Z,55.90
2017-07-15T11:40:10.744Z,55.60
2017-07-15T11:42:39.011Z,58.70
2017-07-15T11:45:07.282Z,61.00
2017-07-15T11:47:35.578Z,59.70
2017-07-15T11:50:03.848Z,59.20
2017-07-15T11:52:32.164Z,59.20
2017-07-15T11:55:00.431Z,60.40
2017-07-15T11:57:28.695Z,59.00
2017-07-15T11:59:56.992Z,58.80
2017-07-15T12:02:25.278Z,59.00
2017-07-15T12:04:53.553Z,58.30
2017-07-15T12:07:21.848Z,57.00
2017-07-15T12:09:50.119Z,58.10
2017-07-15T12:12:18.420Z,58.50
2017-07-15T12:14:46.701Z,57.40
2017-07-15T12:17:14.989Z,58.70
2017-07-15T12:19:43.272Z,59.50
2017-07-15T12:22:11.574Z,61.20
2017-07-15T12:24:39.834Z,58.60
2017-07-15T12:27:08.086Z,59.40
2017-07-15T12:29:36.382Z,59.20
2017-07-15T12:32:04.645Z,58.40
2017-07-15T12:34:32.164Z,58.30
2017-07-15T12:37:00.439Z,59.10
2017-07-15T12:39:28.701Z,60.20
2017-07-15T12:41:57.004Z,59.10
2017-07-15T12:44:25.260Z,58.30
2017-07-15T12:46:53.551Z,59.70
2017-07-15T12:49:21.820Z,58.20
2017-07-15T12:51:50.123Z,59.30
2017-07-15T12:54:18.384Z,57.10
2017-07-15T12:56:46.675Z,56.70
2017-07-15T12:59:14.972Z,57.60
2017-07-15T13:01:43.280Z,56.50
2017-07-15T13:04:11.533Z,58.00
2017-07-15T13:06:39.803Z,59.50
2017-07-15T13:09:08.085Z,59.30
2017-07-15T13:11:36.349Z,59.90
2017-07-15T13:14:04.639Z,59.40
2017-07-15T13:16:32.905Z,60.10
2017-07-15T13:19:01.200Z,59.30
2017-07-15T13:21:29.453Z,59.10
2017-07-15T13:23:57.745Z,58.40
2017-07-15T13:26:26.020Z,58.60
2017-07-15T13:28:54.314Z,57.60
2017-07-15T13:31:21.848Z,57.50
2017-07-15T13:33:50.145Z,59.50
2017-07-15T13:36:18.489Z,57.10
2017-07-15T13:38:46.786Z,58.40
2017-07-15T13:41:15.048Z,58.00
2017-07-15T13:43:43.346Z,58.30
2017-07-15T13:46:11.607Z,56.90
2017-07-15T13:48:39.912Z,57.90
2017-07-15T13:51:08.183Z,58.50
2017-07-15T13:53:36.452Z,56.50
2017-07-15T13:56:04.738Z,56.00
2017-07-15T13:58:33.002Z,57.80
2017-07-15T14:01:01.293Z,57.70
2017-07-15T14:03:29.555Z,59.20
2017-07-15T14:05:57.865Z,58.90
2017-07-15T14:08:26.128Z,59.60
2017-07-15T14:10:54.398Z,58.90
2017-07-15T14:13:22.689Z,59.70
2017-07-15T14:15:50.966Z,57.70
2017-07-15T14:18:19.256Z,59.20
2017-07-15T14:20:47.522Z,58.70
2017-07-15T14:23:15.828Z,58.60
2017-07-15T14:25:44.085Z,59.00
2017-07-15T14:28:12.373Z,59.40
2017-07-15T14:30:40.633Z,58.60
2017-07-15T14:33:08.922Z,58.60
2017-07-15T14:35:37.177Z,59.80
2017-07-15T14:38:05.482Z,59.40
2017-07-15T14:40:33.740Z,57.40
2017-07-15T14:43:02.001Z,58.40
2017-07-15T14:45:30.289Z,60.10
2017-07-15T14:47:58.546Z,58.20
2017-07-15T14:50:26.831Z,58.80
2017-07-15T14:52:55.090Z,59.10
2017-07-15T14:55:23.361Z,58.60
2017-07-15T14:57:51.659Z,58.70
2017-07-15T15:00:19.925Z,58.80
2017-07-15T15:02:48.213Z,58.60
2017-07-15T15:05:16.481Z,57.20
2017-07-15T15:07:44.788Z,57.50
2017-07-15T15:10:13.057Z,58.50
2017-07-15T15:12:41.337Z,57.70
2017-07-15T15:15:08.975Z,57.60
2017-07-15T15:17:37.295Z,58.30
2017-07-15T15:20:05.559Z,58.70
2017-07-15T15:22:34.006Z,59.30
2017-07-15T15:25:02.260Z,61.10
2017-07-15T15:27:30.543Z,61.20
2017-07-15T15:29:58.844Z,62.00
2017-07-15T15:32:27.148Z,60.00
2017-07-15T15:34:55.415Z,60.20
2017-07-15T15:37:23.714Z,60.60
2017-07-15T15:39:51.988Z,59.50
2017-07-15T15:42:20.283Z,59.10
2017-07-15T15:44:48.551Z,59.50
2017-07-15T15:47:16.825Z,59.60
2017-07-15T15:49:45.144Z,60.30
2017-07-15T15:52:13.406Z,60.10
2017-07-15T15:54:41.746Z,61.00
2017-07-15T15:57:10.012Z,62.10
2017-07-15T15:59:38.310Z,60.50
2017-07-15T16:02:06.596Z,65.00
2017-07-15T16:04:34.896Z,61.30
2017-07-15T16:07:03.156Z,61.60
2017-07-15T16:09:31.454Z,61.00
2017-07-15T16:11:59.715Z,61.40
2017-07-15T16:14:28.012Z,61.90
2017-07-15T16:16:56.320Z,63.50
2017-07-15T16:19:24.608Z,62.10
2017-07-15T16:21:52.872Z,61.60
2017-07-15T16:24:21.179Z,62.20
2017-07-15T16:26:48.684Z,61.40
2017-07-15T16:29:16.949Z,63.10
2017-07-15T16:31:45.241Z,61.70
2017-07-15T16:34:13.529Z,62.20
2017-07-15T16:36:41.837Z,63.10
2017-07-15T16:39:10.114Z,64.50
2017-07-15T16:41:38.413Z,63.90
2017-07-15T16:44:06.683Z,61.50
2017-07-15T16:46:34.985Z,60.80
2017-07-15T16:49:03.278Z,61.40
2017-07-15T16:51:31.560Z,62.40
2017-07-15T16:53:59.826Z,63.20
2017-07-15T16:56:28.086Z,62.80
2017-07-15T16:58:56.389Z,64.40
2017-07-15T17:01:24.652Z,64.00
2017-07-15T17:03:52.977Z,63.80
2017-07-15T17:06:21.252Z,63.20
2017-07-15T17:08:49.519Z,64.60
2017-07-15T17:11:18.756Z,64.30
2017-07-15T17:13:47.054Z,64.60
2017-07-15T17:16:15.370Z,64.80
2017-07-15T17:18:43.663Z,65.10
2017-07-15T17:21:11.946Z,64.80
2017-07-15T17:23:40.209Z,67.40
2017-07-15T17:26:08.493Z,65.40
2017-07-15T17:28:36.801Z,65.10
2017-07-15T17:31:05.095Z,65.80
2017-07-15T17:33:33.356Z,67.50
2017-07-15T17:36:01.643Z,67.00
2017-07-15T17:38:29.908Z,65.60
2017-07-15T17:40:58.195Z,64.40
2017-07-15T17:43:26.501Z,64.60
2017-07-15T17:45:54.761Z,65.80
2017-07-15T17:48:23.023Z,66.40
2017-07-15T17:50:51.323Z,68.50
2017-07-15T17:53:20.543Z,67.10
2017-07-15T17:55:48.818Z,66.80
2017-07-15T17:58:17.122Z,69.00
2017-07-15T18:00:45.419Z,70.40
2017-07-15T18:03:13.685Z,69.10
2017-07-15T18:05:41.995Z,70.50
2017-07-15T18:08:10.311Z,69.60
2017-07-15T18:10:38.583Z,69.60
2017-07-15T18:13:06.888Z,71.00
2017-07-15T18:15:35.195Z,71.20
2017-07-15T18:18:03.455Z,72.30
2017-07-15T18:20:31.717Z,71.80
2017-07-15T18:23:00.007Z,70.10
2017-07-15T18:25:28.268Z,72.10
2017-07-15T18:27:55.809Z,72.00
2017-07-15T18:30:24.072Z,72.90
2017-07-15T18:32:53.279Z,72.90
2017-07-15T18:35:21.584Z,73.20
2017-07-15T18:37:49.853Z,74.00
2017-07-15T18:40:17.362Z,74.00
2017-07-15T18:42:45.687Z,73.90
2017-07-15T18:45:13.959Z,74.10
2017-07-15T18:47:42.216Z,74.60
2017-07-15T18:50:10.524Z,74.50
2017-07-15T18:52:38.796Z,74.20
2017-07-15T18:55:06.332Z,74.10
2017-07-15T18:57:34.609Z,75.00
2017-07-15T19:00:02.116Z,75.00
2017-07-15T19:02:30.405Z,75.10
2017-07-15T19:04:58.666Z,75.50
2017-07-15T19:07:26.972Z,75.90
2017-07-15T19:09:55.245Z,77.00
2017-07-15T19:12:23.557Z,77.70
2017-07-15T19:14:51.855Z,77.50
2017-07-15T19:17:20.138Z,77.80
2017-07-15T19:19:48.444Z,78.90
2017-07-15T19:22:16.703Z,79.30
2017-07-15T19:24:44.964Z,79.00
2017-07-15T19:27:13.259Z,78.00
2017-07-15T19:29:41.527Z,77.80
2017-07-15T19:32:09.817Z,78.00
2017-07-15T19:34:38.137Z,78.50
2017-07-15T19:37:06.400Z,79.00
2017-07-15T19:39:34.688Z,79.40
2017-07-15T19:42:02.958Z,79.90
2017-07-15T19:44:31.308Z,79.50
2017-07-15T19:46:59.581Z,80.00
2017-07-15T19:49:27.853Z,80.00
2017-07-15T19:51:56.160Z,80.40
2017-07-15T19:54:24.429Z,81.20
2017-07-15T19:56:52.733Z,82.00
2017-07-15T19:59:21.007Z,81.50
2017-07-15T20:01:49.284Z,80.40
2017-07-15T20:04:17.585Z,80.20
2017-07-15T20:06:45.862Z,80.70
2017-07-15T20:09:14.145Z,80.70
2017-07-15T20:11:42.456Z,80.80
2017-07-15T20:14:10.720Z,80.40
2017-07-15T20:16:38.980Z,81.20
2017-07-15T20:19:07.338Z,80.80
2017-07-15T20:21:35.599Z,81.70
2017-07-15T20:24:03.864Z,82.10
2017-07-15T20:26:31.407Z,82.20
2017-07-15T20:28:59.662Z,80.90
2017-07-15T20:31:27.940Z,80.70
2017-07-15T20:33:56.215Z,82.40
2017-07-15T20:36:45.274Z,82.20
2017-07-15T20:39:13.541Z,82.60
2017-07-15T20:41:41.804Z,82.50
2017-07-15T20:44:09.392Z,82.60
2017-07-15T20:46:37.654Z,83.50
2017-07-15T20:49:05.918Z,84.50
2017-07-15T20:51:34.205Z,83.60
2017-07-15T20:54:08.219Z,83.90
2017-07-15T20:56:36.508Z,83.80
2017-07-15T20:59:04.773Z,83.80
2017-07-15T21:01:33.069Z,84.10
2017-07-15T21:04:01.327Z,84.50
2017-07-15T21:06:29.618Z,85.40
2017-07-15T21:08:57.915Z,85.70
2017-07-15T21:11:26.191Z,86.00
2017-07-15T21:13:54.501Z,85.70
2017-07-15T21:16:22.760Z,85.40
2017-07-15T21:18:51.036Z,85.40
2017-07-15T21:21:19.342Z,85.40
2017-07-15T21:23:47.612Z,86.00
2017-07-15T21:26:15.888Z,85.90
2017-07-15T21:28:44.175Z,86.30
2017-07-15T21:31:12.466Z,86.90
2017-07-15T21:33:40.766Z,84.80
2017-07-15T21:36:09.045Z,84.80
2017-07-15T21:38:37.332Z,84.60
2017-07-15T21:41:05.626Z,84.60
2017-07-15T21:43:33.891Z,84.00
2017-07-15T21:46:02.189Z,84.60
2017-07-15T21:48:30.458Z,83.00
2017-07-15T21:50:58.741Z,83.80
2017-07-15T21:53:27.028Z,81.10
2017-07-15T21:55:55.293Z,82.70
2017-07-15T21:58:23.579Z,80.80
2017-07-15T22:00:51.899Z,80.30
2017-07-15T22:03:20.188Z,80.20
2017-07-15T22:05:48.450Z,81.70
2017-07-15T22:08:16.737Z,80.80
2017-07-15T22:10:44.999Z,79.40
2017-07-15T22:13:13.287Z,80.00
2017-07-15T22:15:41.553Z,79.30
2017-07-15T22:18:09.856Z,79.30
2017-07-15T22:20:38.130Z,78.60
2017-07-15T22:23:06.393Z,80.10
2017-07-15T22:25:34.681Z,79.20
2017-07-15T22:28:02.958Z,79.10
2017-07-15T22:30:31.252Z,78.90
2017-07-15T22:32:59.526Z,79.30
2017-07-15T22:35:27.808Z,79.10
2017-07-15T22:37:56.113Z,79.10
2017-07-15T22:40:24.371Z,79.30
2017-07-15T22:42:52.633Z,79.20
2017-07-15T22:45:20.943Z,81.10
2017-07-15T22:47:49.198Z,79.70
2017-07-15T22:50:17.463Z,81.50
2017-07-15T22:52:45.750Z,81.10
2017-07-15T22:55:14.020Z,81.10
2017-07-15T22:57:42.325Z,80.30
2017-07-15T23:00:10.584Z,82.00
2017-07-15T23:02:38.840Z,82.30
2017-07-15T23:05:07.132Z,82.60
2017-07-15T23:07:35.387Z,82.40
2017-07-15T23:10:03.688Z,82.60
2017-07-15T23:12:31.953Z,81.70
2017-07-15T23:15:00.207Z,83.30
2017-07-15T23:17:28.496Z,83.50
2017-07-15T23:19:56.783Z,82.70
2017-07-15T23:22:25.067Z,81.80
2017-07-15T23:24:53.333Z,80.70
2017-07-15T23:27:21.621Z,82.20
2017-07-15T23:29:49.880Z,82.70
2017-07-15T23:32:18.181Z,80.90
2017-07-15T23:34:46.432Z,81.00
2017-07-15T23:37:13.932Z,80.90
2017-07-15T23:39:42.221Z,80.20
2017-07-15T23:42:10.480Z,78.90
2017-07-15T23:44:38.805Z,79.40
2017-07-15T23:47:07.080Z,79.50
2017-07-15T23:49:35.342Z,80.00
2017-07-15T23:52:03.632Z,79.70
2017-07-15T23:54:31.901Z,79.10
2017-07-15T23:57:00.192Z,79.60
2017-07-15T23:59:28.451Z,80.30
